Goddard, KS (67052)

14:06 CDT le 19 avril 2015 (GMT -0500)
Goddard North | | Change Station
CLOSE
Current Station
Stations météorologiques personnelles
Location: Goddard, KS
Altitude: 1473 ft
Stations météo à proximité

Alt. 1473 ft 37.67 °N, 97.58 °W | Updated 7 minutes ago

Couvert
Couvert
65.5 ° F
Paraît 65.5 ° F
N
17.1
Vent Variable Vent de NE

Aujourd'hui
Haut(e) -- | Bas -- ° F
--% Risque de précip.
Hier
Haut(e) -- | Bas -- ° F
Precip. -- pouce
6:50 AM 8:09 PM
Nouvelle lune, 1% visible
Pression 29.72 pouce
Visibilité 10.0 Miles terrestres
Nuages Peu 3000 ft
Nuages épars 4500 ft
Nuageux 7000 ft
Point de rosée 57 ° F
Humidité 73%
Précipitations 0.09 pouce
Profondeur de la couche neigeuse Non disponible.
UV 6 sur 12
Pollen 9.00 sur 12
Qualité de l'air Non disponible.
Flu Activity Sporadic
METAR KICT 191853Z 33013KT 10SM -RA FEW030 SCT045 BKN070 19/11 A2973 RMK AO2 RAB46 SLP063 P0000 T01890106

More Conditions Fewer Conditions

Pression 29.72 pouce
Visibilité 10.0 Miles terrestres
Nuages Peu 3000 ft
Nuages épars 4500 ft
Nuageux 7000 ft
Point de rosée 57 ° F
Humidité 73%
Précipitations 0.09 pouce
Profondeur de la couche neigeuse Non disponible.
UV 6 sur 12
Pollen 9.00 sur 12
Qualité de l'air Non disponible.
Flu Activity Sporadic
METAR KICT 191853Z 33013KT 10SM -RA FEW030 SCT045 BKN070 19/11 A2973 RMK AO2 RAB46 SLP063 P0000 T01890106

More Conditions Fewer Conditions

10-Day Weather Forecast

Almanac

Astronomie

Apr. 19, 2015 Lever Coucher
Temps réel
Crépuscule civil
Crépuscule nautique
Crépuscule astronomique
Lune
Durée de lumière visible
Longueur du jour
Tomorrow will be .
, % of the Moon is Illuminated

Extrêmes aujourd'hui

State Highs State Lows

Community

WunderPhotos

Upload Photos

1,814,915 Photos téléchargées !

WunderBlogs® & News

Nearby

Qualité de l'air

  Qualité de l'air Indice de la qualité de l'air Polluant
Not available.

Épaisseur de neige

Station Depth Altitude

Activité sismique

Ville Distance Mag. Time & Date
Minimum magnitude displayed is 2.5.

Températures des eaux côtières

Lieu Température

Stations

Stations météo à proximité

Emplacement de la station Température Refroidissement éolien Point de rosée Humidité Vent Precip. Alt. Mise à jour Type